sensor_id;sensor_type;location;lat;lon;timestamp;pressure;altitude;pressure_sealevel;temperature;humidity
33913;BME280;20200;52.084;5.224;2023-04-01T00:01:25;153106.0;;;17.23;58.72
33913;BME280;20200;52.084;5.224;2023-04-01T00:03:02;153109.0;;;17.25;58.81
33913;BME280;20200;52.084;5.224;2023-04-01T00:06:16;153028.0;;;16.93;59.01
33913;BME280;20200;52.084;5.224;2023-04-01T00:07:53;153087.0;;;17.16;58.84
33913;BME280;20200;52.084;5.224;2023-04-01T00:09:29;153164.0;;;17.47;57.91
33913;BME280;20200;52.084;5.224;2023-04-01T00:11:05;153130.0;;;17.34;58.19
33913;BME280;20200;52.084;5.224;2023-04-01T00:14:19;153143.0;;;17.38;58.08
33913;BME280;20200;52.084;5.224;2023-04-01T00:15:55;153078.0;;;17.12;58.64
33913;BME280;20200;52.084;5.224;2023-04-01T00:17:32;153123.0;;;17.3;58.0
33913;BME280;20200;52.084;5.224;2023-04-01T00:20:44;152943.0;;;16.59;60.14
33913;BME280;20200;52.084;5.224;2023-04-01T00:22:22;153128.0;;;17.32;58.27
33913;BME280;20200;52.084;5.224;2023-04-01T00:23:59;153168.0;;;17.48;57.41
33913;BME280;20200;52.084;5.224;2023-04-01T00:25:35;153051.0;;;17.02;58.58
33913;BME280;20200;52.084;5.224;2023-04-01T00:28:48;153121.0;;;17.3;57.55
33913;BME280;20200;52.084;5.224;2023-04-01T00:30:25;153071.0;;;17.09;57.92
33913;BME280;20200;52.084;5.224;2023-04-01T00:32:01;153044.0;;;17.0;58.22
33913;BME280;20200;52.084;5.224;2023-04-01T00:35:14;153055.0;;;17.03;58.13
33913;BME280;20200;52.084;5.224;2023-04-01T00:36:52;153014.0;;;16.87;58.34
33913;BME280;20200;52.084;5.224;2023-04-01T00:38:28;153152.0;;;17.43;56.95
33913;BME280;20200;52.084;5.224;2023-04-01T00:42:02;152964.0;;;16.68;58.54
33913;BME280;20200;52.084;5.224;2023-04-01T00:43:39;152955.0;;;16.63;59.0
33913;BME280;20200;52.084;5.224;2023-04-01T00:45:27;153091.0;;;17.18;57.4
33913;BME280;20200;52.084;5.224;2023-04-01T00:47:05;153042.0;;;16.98;57.92
33913;BME280;20200;52.084;5.224;2023-04-01T00:48:43;153180.0;;;17.53;56.47
33913;BME280;20200;52.084;5.224;2023-04-01T00:52:02;153000.0;;;16.81;57.31
33913;BME280;20200;52.084;5.224;2023-04-01T00:53:43;153099.0;;;17.21;57.27
33913;BME280;20200;52.084;5.224;2023-04-01T00:55:21;153005.0;;;16.84;58.28
33913;BME280;20200;52.084;5.224;2023-04-01T00:57:02;152973.0;;;16.7;58.7
33913;BME280;20200;52.084;5.224;2023-04-01T01:00:20;153042.0;;;16.98;58.31
33913;BME280;20200;52.084;5.224;2023-04-01T01:01:56;152979.0;;;16.73;58.73
33913;BME280;20200;52.084;5.224;2023-04-01T01:03:32;152959.0;;;16.65;59.53
33913;BME280;20200;52.084;5.224;2023-04-01T01:06:51;152901.0;;;16.43;59.69
33913;BME280;20200;52.084;5.224;2023-04-01T01:08:46;152907.0;;;16.45;60.01
33913;BME280;20200;52.084;5.224;2023-04-01T01:10:39;152961.0;;;16.66;59.32
33913;BME280;20200;52.084;5.224;2023-04-01T01:12:18;152904.0;;;16.43;59.47
33913;BME280;20200;52.084;5.224;2023-04-01T01:13:58;153052.0;;;17.02;58.27
33913;BME280;20200;52.084;5.224;2023-04-01T01:17:30;152836.0;;;16.16;60.74
33913;BME280;20200;52.084;5.224;2023-04-01T01:19:32;153058.0;;;17.04;58.24
33913;BME280;20200;52.084;5.224;2023-04-01T01:21:58;153088.0;;;17.16;57.73
33913;BME280;20200;52.084;5.224;2023-04-01T01:23:57;153099.0;;;17.21;57.41
33913;BME280;20200;52.084;5.224;2023-04-01T01:26:29;153027.0;;;16.93;58.1
33913;BME280;20200;52.084;5.224;2023-04-01T01:28:44;152928.0;;;16.53;58.87
33913;BME280;20200;52.084;5.224;2023-04-01T01:30:37;153006.0;;;16.84;58.3
33913;BME280;20200;52.084;5.224;2023-04-01T01:35:19;152948.0;;;16.61;58.5
33913;BME280;20200;52.084;5.224;2023-04-01T01:37:01;152858.0;;;16.25;59.58
33913;BME280;20200;52.084;5.224;2023-04-01T01:40:19;152887.0;;;16.36;59.08
33913;BME280;20200;52.084;5.224;2023-04-01T01:41:58;152928.0;;;16.53;58.36
33913;BME280;20200;52.084;5.224;2023-04-01T01:43:39;152937.0;;;16.56;58.86
33913;BME280;20200;52.084;5.224;2023-04-01T01:45:18;152927.0;;;16.52;58.63
33913;BME280;20200;52.084;5.224;2023-04-01T01:48:36;152932.0;;;16.54;58.51
33913;BME280;20200;52.084;5.224;2023-04-01T01:50:13;152871.0;;;16.3;59.32
33913;BME280;20200;52.084;5.224;2023-04-01T01:51:52;152879.0;;;16.34;58.83
33913;BME280;20200;52.084;5.224;2023-04-01T01:53:28;152814.0;;;16.07;59.72
33913;BME280;20200;52.084;5.224;2023-04-01T01:57:05;152976.0;;;16.72;58.16
33913;BME280;20200;52.084;5.224;2023-04-01T01:58:44;152936.0;;;16.56;58.54
33913;BME280;20200;52.084;5.224;2023-04-01T02:00:22;152943.0;;;16.59;58.51
33913;BME280;20200;52.084;5.224;2023-04-01T02:01:59;152923.0;;;16.52;58.58
33913;BME280;20200;52.084;5.224;2023-04-01T02:05:17;152876.0;;;16.32;58.65
33913;BME280;20200;52.084;5.224;2023-04-01T02:06:58;152926.0;;;16.52;58.79
33913;BME280;20200;52.084;5.224;2023-04-01T02:08:40;152926.0;;;16.52;58.52
33913;BME280;20200;52.084;5.224;2023-04-01T02:10:19;152918.0;;;16.5;58.61
33913;BME280;20200;52.084;5.224;2023-04-01T02:13:43;152874.0;;;16.31;59.34
33913;BME280;20200;52.084;5.224;2023-04-01T02:15:24;152921.0;;;16.5;58.7
33913;BME280;20200;52.084;5.224;2023-04-01T02:17:06;152948.0;;;16.61;58.43
33913;BME280;20200;52.084;5.224;2023-04-01T02:18:45;152907.0;;;16.45;58.72
33913;BME280;20200;52.084;5.224;2023-04-01T02:22:07;152847.0;;;16.21;59.71
33913;BME280;20200;52.084;5.224;2023-04-01T02:23:46;152819.0;;;16.09;59.88
33913;BME280;20200;52.084;5.224;2023-04-01T02:25:27;152832.0;;;16.15;59.62
33913;BME280;20200;52.084;5.224;2023-04-01T02:27:04;152921.0;;;16.5;58.6
33913;BME280;20200;52.084;5.224;2023-04-01T02:30:19;152908.0;;;16.45;58.62
33913;BME280;20200;52.084;5.224;2023-04-01T02:31:56;152893.0;;;16.39;58.76
33913;BME280;20200;52.084;5.224;2023-04-01T02:33:34;152992.0;;;16.78;57.92
33913;BME280;20200;52.084;5.224;2023-04-01T02:36:50;153073.0;;;17.11;56.93
33913;BME280;20200;52.084;5.224;2023-04-01T02:38:26;153031.0;;;16.95;57.29
33913;BME280;20200;52.084;5.224;2023-04-01T02:40:05;152905.0;;;16.43;58.17
33913;BME280;20200;52.084;5.224;2023-04-01T02:41:44;152966.0;;;16.68;58.01
33913;BME280;20200;52.084;5.224;2023-04-01T02:44:57;153046.0;;;17.0;57.2
33913;BME280;20200;52.084;5.224;2023-04-01T02:46:33;152951.0;;;16.62;58.35
33913;BME280;20200;52.084;5.224;2023-04-01T02:48:09;153018.0;;;16.88;57.13
33913;BME280;20200;52.084;5.224;2023-04-01T02:51:22;152990.0;;;16.77;57.56
33913;BME280;20200;52.084;5.224;2023-04-01T02:52:58;152956.0;;;16.64;57.97
33913;BME280;20200;52.084;5.224;2023-04-01T02:54:34;152944.0;;;16.59;58.38
33913;BME280;20200;52.084;5.224;2023-04-01T02:56:11;153066.0;;;17.07;56.7
33913;BME280;20200;52.084;5.224;2023-04-01T02:59:24;153025.0;;;16.91;57.24
33913;BME280;20200;52.084;5.224;2023-04-01T03:01:00;152909.0;;;16.45;58.35
33913;BME280;20200;52.084;5.224;2023-04-01T03:02:37;152828.0;;;16.13;59.22
33913;BME280;20200;52.084;5.224;2023-04-01T03:05:49;152779.0;;;15.94;59.78
33913;BME280;20200;52.084;5.224;2023-04-01T03:07:25;152971.0;;;16.7;57.86
33913;BME280;20200;52.084;5.224;2023-04-01T03:09:02;152985.0;;;16.75;58.02
33913;BME280;20200;52.084;5.224;2023-04-01T03:12:14;152984.0;;;16.75;58.02
33913;BME280;20200;52.084;5.224;2023-04-01T03:13:50;152755.0;;;15.84;60.06
33913;BME280;20200;52.084;5.224;2023-04-01T03:15:26;152857.0;;;16.25;59.75
33913;BME280;20200;52.084;5.224;2023-04-01T03:18:38;152892.0;;;16.38;58.9
33913;BME280;20200;52.084;5.224;2023-04-01T03:20:15;153006.0;;;16.84;57.53
33913;BME280;20200;52.084;5.224;2023-04-01T03:21:51;153228.0;;;17.72;55.2
33913;BME280;20200;52.084;5.224;2023-04-01T03:23:28;153234.0;;;17.75;54.6
33913;BME280;20200;52.084;5.224;2023-04-01T03:26:42;153224.0;;;17.7;55.32
33913;BME280;20200;52.084;5.224;2023-04-01T03:28:18;153127.0;;;17.32;56.25
33913;BME280;20200;52.084;5.224;2023-04-01T03:29:54;152946.0;;;16.61;57.48
33913;BME280;20200;52.084;5.224;2023-04-01T03:33:07;153133.0;;;17.34;56.39
33913;BME280;20200;52.084;5.224;2023-04-01T03:34:43;153088.0;;;17.16;57.12
33913;BME280;20200;52.084;5.224;2023-04-01T03:36:19;152964.0;;;16.68;58.28
33913;BME280;20200;52.084;5.224;2023-04-01T03:39:31;153077.0;;;17.12;56.72
33913;BME280;20200;52.084;5.224;2023-04-01T03:41:11;153004.0;;;16.84;56.99
33913;BME280;20200;52.084;5.224;2023-04-01T03:42:48;153037.0;;;16.96;57.35
33913;BME280;20200;52.084;5.224;2023-04-01T03:44:24;152998.0;;;16.81;58.47
33913;BME280;20200;52.084;5.224;2023-04-01T03:47:37;153035.0;;;16.95;57.43
33913;BME280;20200;52.084;5.224;2023-04-01T03:49:13;152966.0;;;16.68;58.31
33913;BME280;20200;52.084;5.224;2023-04-01T03:50:49;153079.0;;;17.13;56.77
33913;BME280;20200;52.084;5.224;2023-04-01T03:54:01;152902.0;;;16.43;59.24
33913;BME280;20200;52.084;5.224;2023-04-01T03:55:38;153118.0;;;17.28;56.98
33913;BME280;20200;52.084;5.224;2023-04-01T03:57:14;153048.0;;;17.02;57.51
33913;BME280;20200;52.084;5.224;2023-04-01T04:00:27;153079.0;;;17.13;57.27
33913;BME280;20200;52.084;5.224;2023-04-01T04:02:04;153175.0;;;17.52;56.38
33913;BME280;20200;52.084;5.224;2023-04-01T04:03:40;153203.0;;;17.62;56.08
33913;BME280;20200;52.084;5.224;2023-04-01T04:05:16;153214.0;;;17.66;55.62
33913;BME280;20200;52.084;5.224;2023-04-01T04:08:29;152907.0;;;16.45;59.31
33913;BME280;20200;52.084;5.224;2023-04-01T04:10:07;153034.0;;;16.95;58.44
33913;BME280;20200;52.084;5.224;2023-04-01T04:11:42;153047.0;;;17.0;58.03
33913;BME280;20200;52.084;5.224;2023-04-01T04:14:55;152930.0;;;16.53;59.56
33913;BME280;20200;52.084;5.224;2023-04-01T04:16:34;153198.0;;;17.61;56.58
33913;BME280;20200;52.084;5.224;2023-04-01T04:18:11;152971.0;;;16.7;59.29
33913;BME280;20200;52.084;5.224;2023-04-01T04:21:23;152957.0;;;16.64;59.45
33913;BME280;20200;52.084;5.224;2023-04-01T04:22:59;153213.0;;;17.66;56.98
33913;BME280;20200;52.084;5.224;2023-04-01T04:24:36;153163.0;;;17.46;56.88
33913;BME280;20200;52.084;5.224;2023-04-01T04:26:14;152943.0;;;16.59;59.52
33913;BME280;20200;52.084;5.224;2023-04-01T04:29:27;153059.0;;;17.05;58.67
33913;BME280;20200;52.084;5.224;2023-04-01T04:31:04;153034.0;;;16.95;58.92
33913;BME280;20200;52.084;5.224;2023-04-01T04:32:40;153021.0;;;16.9;58.83
33913;BME280;20200;52.084;5.224;2023-04-01T04:35:55;152945.0;;;16.61;59.2
33913;BME280;20200;52.084;5.224;2023-04-01T04:37:31;152998.0;;;16.8;58.75
33913;BME280;20200;52.084;5.224;2023-04-01T04:39:08;152962.0;;;16.66;59.67
33913;BME280;20200;52.084;5.224;2023-04-01T04:42:21;152978.0;;;16.73;59.56
33913;BME280;20200;52.084;5.224;2023-04-01T04:43:57;152913.0;;;16.47;59.72
33913;BME280;20200;52.084;5.224;2023-04-01T04:45:33;153017.0;;;16.88;58.9
33913;BME280;20200;52.084;5.224;2023-04-01T04:47:09;153035.0;;;16.95;58.5
33913;BME280;20200;52.084;5.224;2023-04-01T04:50:22;152993.0;;;16.78;59.28
33913;BME280;20200;52.084;5.224;2023-04-01T04:51:59;153016.0;;;16.88;58.91
33913;BME280;20200;52.084;5.224;2023-04-01T04:53:35;153021.0;;;16.9;58.89
33913;BME280;20200;52.084;5.224;2023-04-01T04:56:48;153085.0;;;17.16;57.75
33913;BME280;20200;52.084;5.224;2023-04-01T04:58:27;153176.0;;;17.52;56.59
33913;BME280;20200;52.084;5.224;2023-04-01T05:00:04;153119.0;;;17.28;57.44
33913;BME280;20200;52.084;5.224;2023-04-01T05:03:17;153154.0;;;17.43;56.56
33913;BME280;20200;52.084;5.224;2023-04-01T05:04:53;153100.0;;;17.21;57.68
33913;BME280;20200;52.084;5.224;2023-04-01T05:06:29;153119.0;;;17.28;57.37
33913;BME280;20200;52.084;5.224;2023-04-01T05:08:05;153139.0;;;17.36;56.98
33913;BME280;20200;52.084;5.224;2023-04-01T05:11:19;153177.0;;;17.52;56.74
33913;BME280;20200;52.084;5.224;2023-04-01T05:12:55;153215.0;;;17.68;56.44
33913;BME280;20200;52.084;5.224;2023-04-01T05:14:30;153146.0;;;17.39;56.7
33913;BME280;20200;52.084;5.224;2023-04-01T05:17:44;153140.0;;;17.37;56.72
33913;BME280;20200;52.084;5.224;2023-04-01T05:19:20;153262.0;;;17.86;55.71
33913;BME280;20200;52.084;5.224;2023-04-01T05:20:56;153352.0;;;18.21;54.83
33913;BME280;20200;52.084;5.224;2023-04-01T05:24:08;153425.0;;;18.5;53.81
33913;BME280;20200;52.084;5.224;2023-04-01T05:25:44;153336.0;;;18.14;54.54
33913;BME280;20200;52.084;5.224;2023-04-01T05:27:20;153223.0;;;17.7;56.03
33913;BME280;20200;52.084;5.224;2023-04-01T05:28:56;153192.0;;;17.59;56.56
33913;BME280;20200;52.084;5.224;2023-04-01T05:32:07;153250.0;;;17.8;55.53
33913;BME280;20200;52.084;5.224;2023-04-01T05:33:43;153271.0;;;17.89;55.77
33913;BME280;20200;52.084;5.224;2023-04-01T05:35:19;153282.0;;;17.93;55.39
33913;BME280;20200;52.084;5.224;2023-04-01T05:38:32;153240.0;;;17.77;55.57
33913;BME280;20200;52.084;5.224;2023-04-01T05:40:09;153262.0;;;17.86;55.25
33913;BME280;20200;52.084;5.224;2023-04-01T05:41:45;153224.0;;;17.7;55.71
33913;BME280;20200;52.084;5.224;2023-04-01T05:44:57;153232.0;;;17.75;55.64
33913;BME280;20200;52.084;5.224;2023-04-01T05:46:33;153298.0;;;18.0;55.35
33913;BME280;20200;52.084;5.224;2023-04-01T05:48:09;153359.0;;;18.25;54.65
33913;BME280;20200;52.084;5.224;2023-04-01T05:51:22;153295.0;;;17.98;55.08
33913;BME280;20200;52.084;5.224;2023-04-01T05:52:59;153318.0;;;18.07;54.84
33913;BME280;20200;52.084;5.224;2023-04-01T05:54:35;153226.0;;;17.71;56.15
33913;BME280;20200;52.084;5.224;2023-04-01T05:56:11;153167.0;;;17.48;57.0
33913;BME280;20200;52.084;5.224;2023-04-01T05:59:23;153147.0;;;17.41;57.1
33913;BME280;20200;52.084;5.224;2023-04-01T06:01:01;153268.0;;;17.88;55.75
33913;BME280;20200;52.084;5.224;2023-04-01T06:02:37;153210.0;;;17.66;56.15
33913;BME280;20200;52.084;5.224;2023-04-01T06:05:52;153202.0;;;17.61;56.45
33913;BME280;20200;52.084;5.224;2023-04-01T06:07:28;153133.0;;;17.34;56.94
33913;BME280;20200;52.084;5.224;2023-04-01T06:09:11;153256.0;;;17.84;55.81
33913;BME280;20200;52.084;5.224;2023-04-01T06:10:57;153193.0;;;17.59;56.78
33913;BME280;20200;52.084;5.224;2023-04-01T06:14:44;153300.0;;;18.02;55.34
33913;BME280;20200;52.084;5.224;2023-04-01T06:16:32;153239.0;;;17.77;55.48
33913;BME280;20200;52.084;5.224;2023-04-01T06:18:41;153243.0;;;17.78;55.73
33913;BME280;20200;52.084;5.224;2023-04-01T06:21:08;153272.0;;;17.89;55.34
33913;BME280;20200;52.084;5.224;2023-04-01T06:23:23;153196.0;;;17.59;56.46
33913;BME280;20200;52.084;5.224;2023-04-01T06:25:26;153103.0;;;17.22;57.09
33913;BME280;20200;52.084;5.224;2023-04-01T06:27:15;153209.0;;;17.64;56.52
33913;BME280;20200;52.084;5.224;2023-04-01T06:29:08;153153.0;;;17.43;56.51
33913;BME280;20200;52.084;5.224;2023-04-01T06:31:12;153114.0;;;17.27;57.3
33913;BME280;20200;52.084;5.224;2023-04-01T06:33:04;153048.0;;;17.02;57.97
33913;BME280;20200;52.084;5.224;2023-04-01T06:36:08;152978.0;;;16.73;58.87
33913;BME280;20200;52.084;5.224;2023-04-01T06:38:05;152997.0;;;16.8;58.63
33913;BME280;20200;52.084;5.224;2023-04-01T06:41:17;152977.0;;;16.72;59.27
33913;BME280;20200;52.084;5.224;2023-04-01T06:44:16;152905.0;;;16.43;59.66
33913;BME280;20200;52.084;5.224;2023-04-01T06:46:04;152984.0;;;16.75;59.05
33913;BME280;20200;52.084;5.224;2023-04-01T06:47:56;153023.0;;;16.9;59.09
33913;BME280;20200;52.084;5.224;2023-04-01T06:49:45;153205.0;;;17.63;56.63
33913;BME280;20200;52.084;5.224;2023-04-01T06:51:36;153045.0;;;17.0;58.5
33913;BME280;20200;52.084;5.224;2023-04-01T06:53:26;153173.0;;;17.5;56.56
33913;BME280;20200;52.084;5.224;2023-04-01T06:55:19;153211.0;;;17.66;56.2
33913;BME280;20200;52.084;5.224;2023-04-01T06:57:05;153203.0;;;17.62;56.51
33913;BME280;20200;52.084;5.224;2023-04-01T06:58:59;153140.0;;;17.37;57.07
33913;BME280;20200;52.084;5.224;2023-04-01T07:02:25;153256.0;;;17.84;55.64
33913;BME280;20200;52.084;5.224;2023-04-01T07:04:10;153209.0;;;17.64;55.98
33913;BME280;20200;52.084;5.224;2023-04-01T07:05:49;153223.0;;;17.7;56.2
33913;BME280;20200;52.084;5.224;2023-04-01T07:07:32;153261.0;;;17.86;55.82
33913;BME280;20200;52.084;5.224;2023-04-01T07:10:55;153239.0;;;17.77;55.74
33913;BME280;20200;52.084;5.224;2023-04-01T07:12:40;153127.0;;;17.32;57.55
33913;BME280;20200;52.084;5.224;2023-04-01T07:14:22;153221.0;;;17.7;56.36
33913;BME280;20200;52.084;5.224;2023-04-01T07:16:08;153215.0;;;17.68;56.27
33913;BME280;20200;52.084;5.224;2023-04-01T07:17:53;153182.0;;;17.54;56.91
33913;BME280;20200;52.084;5.224;2023-04-01T07:21:23;153536.0;;;18.95;53.28
33913;BME280;20200;52.084;5.224;2023-04-01T07:23:03;153343.0;;;18.18;54.57
33913;BME280;20200;52.084;5.224;2023-04-01T07:24:44;153350.0;;;18.2;55.26
33913;BME280;20200;52.084;5.224;2023-04-01T07:26:22;153461.0;;;18.64;53.62
33913;BME280;20200;52.084;5.224;2023-04-01T07:29:40;153461.0;;;18.64;53.82
33913;BME280;20200;52.084;5.224;2023-04-01T07:31:25;153420.0;;;18.48;54.06
33913;BME280;20200;52.084;5.224;2023-04-01T07:33:12;153434.0;;;18.53;54.2
33913;BME280;20200;52.084;5.224;2023-04-01T07:35:10;153275.0;;;17.91;55.41
33913;BME280;20200;52.084;5.224;2023-04-01T07:36:53;153354.0;;;18.22;54.89
33913;BME280;20200;52.084;5.224;2023-04-01T07:40:30;153330.0;;;18.12;55.26
33913;BME280;20200;52.084;5.224;2023-04-01T07:42:18;153485.0;;;18.75;53.56
33913;BME280;20200;52.084;5.224;2023-04-01T07:44:08;153458.0;;;18.63;53.7
33913;BME280;20200;52.084;5.224;2023-04-01T07:45:58;153578.0;;;19.11;52.94
33913;BME280;20200;52.084;5.224;2023-04-01T07:47:50;153642.0;;;19.36;51.87
33913;BME280;20200;52.084;5.224;2023-04-01T07:49:39;153477.0;;;18.7;53.4
33913;BME280;20200;52.084;5.224;2023-04-01T07:51:26;153536.0;;;18.95;53.19
33913;BME280;20200;52.084;5.224;2023-04-01T07:54:57;153609.0;;;19.23;52.33
33913;BME280;20200;52.084;5.224;2023-04-01T07:56:41;153391.0;;;18.36;54.46
33913;BME280;20200;52.084;5.224;2023-04-01T07:58:27;153400.0;;;18.41;54.2
33913;BME280;20200;52.084;5.224;2023-04-01T08:00:13;153538.0;;;18.95;52.9
33913;BME280;20200;52.084;5.224;2023-04-01T08:01:58;153368.0;;;18.27;54.52
33913;BME280;20200;52.084;5.224;2023-04-01T08:04:00;153416.0;;;18.46;53.74
33913;BME280;20200;52.084;5.224;2023-04-01T08:07:36;153474.0;;;18.7;53.56
33913;BME280;20200;52.084;5.224;2023-04-01T08:09:23;153594.0;;;19.18;52.65
33913;BME280;20200;52.084;5.224;2023-04-01T08:11:13;153501.0;;;18.8;53.12
33913;BME280;20200;52.084;5.224;2023-04-01T08:13:04;153605.0;;;19.21;52.46
33913;BME280;20200;52.084;5.224;2023-04-01T08:14:53;153472.0;;;18.68;53.44
33913;BME280;20200;52.084;5.224;2023-04-01T08:16:35;153457.0;;;18.63;53.34
33913;BME280;20200;52.084;5.224;2023-04-01T08:20:18;153461.0;;;18.64;53.76
33913;BME280;20200;52.084;5.224;2023-04-01T08:22:01;153571.0;;;19.09;52.16
33913;BME280;20200;52.084;5.224;2023-04-01T08:23:41;153519.0;;;18.87;53.11
33913;BME280;20200;52.084;5.224;2023-04-01T08:25:22;153490.0;;;18.77;53.59
33913;BME280;20200;52.084;5.224;2023-04-01T08:27:06;153593.0;;;19.18;52.54
33913;BME280;20200;52.084;5.224;2023-04-01T08:30:35;153544.0;;;18.97;52.85
33913;BME280;20200;52.084;5.224;2023-04-01T08:32:18;153508.0;;;18.84;53.35
33913;BME280;20200;52.084;5.224;2023-04-01T08:34:00;153470.0;;;18.68;53.95
33913;BME280;20200;52.084;5.224;2023-04-01T08:35:42;153498.0;;;18.79;53.73
33913;BME280;20200;52.084;5.224;2023-04-01T08:37:28;153554.0;;;19.02;53.03
33913;BME280;20200;52.084;5.224;2023-04-01T08:40:56;153523.0;;;18.89;53.46
33913;BME280;20200;52.084;5.224;2023-04-01T08:45:15;153456.0;;;18.62;53.76
33913;BME280;20200;52.084;5.224;2023-04-01T08:51:26;153465.0;;;18.66;53.95
33913;BME280;20200;52.084;5.224;2023-04-01T08:54:56;153619.0;;;19.27;52.5
33913;BME280;20200;52.084;5.224;2023-04-01T08:57:34;153672.0;;;19.48;51.87
33913;BME280;20200;52.084;5.224;2023-04-01T08:59:33;153655.0;;;19.41;52.17
33913;BME280;20200;52.084;5.224;2023-04-01T09:01:36;153571.0;;;19.09;52.81
33913;BME280;20200;52.084;5.224;2023-04-01T09:04:48;153349.0;;;18.2;54.8
33913;BME280;20200;52.084;5.224;2023-04-01T09:06:40;153379.0;;;18.32;54.87
33913;BME280;20200;52.084;5.224;2023-04-01T09:10:33;153341.0;;;18.18;54.85
33913;BME280;20200;52.084;5.224;2023-04-01T09:13:14;153542.0;;;18.96;53.5
33913;BME280;20200;52.084;5.224;2023-04-01T09:15:37;153432.0;;;18.53;54.61
33913;BME280;20200;52.084;5.224;2023-04-01T09:18:57;153312.0;;;18.05;55.47
33913;BME280;20200;52.084;5.224;2023-04-01T09:21:49;153418.0;;;18.47;55.04
33913;BME280;20200;52.084;5.224;2023-04-01T09:24:26;153442.0;;;18.57;54.84
33913;BME280;20200;52.084;5.224;2023-04-01T09:26:22;153361.0;;;18.25;55.63
33913;BME280;20200;52.084;5.224;2023-04-01T09:28:10;153448.0;;;18.59;54.43
33913;BME280;20200;52.084;5.224;2023-04-01T09:30:39;153444.0;;;18.57;54.66
33913;BME280;20200;52.084;5.224;2023-04-01T09:32:34;153627.0;;;19.3;53.44
33913;BME280;20200;52.084;5.224;2023-04-01T09:36:03;153441.0;;;18.56;54.77
33913;BME280;20200;52.084;5.224;2023-04-01T09:39:37;153426.0;;;18.5;55.31
33913;BME280;20200;52.084;5.224;2023-04-01T09:41:28;153473.0;;;18.7;54.41
33913;BME280;20200;52.084;5.224;2023-04-01T09:43:16;153500.0;;;18.8;54.65
33913;BME280;20200;52.084;5.224;2023-04-01T09:45:07;153670.0;;;19.47;53.12
33913;BME280;20200;52.084;5.224;2023-04-01T09:47:01;153581.0;;;19.12;53.55
33913;BME280;20200;52.084;5.224;2023-04-01T09:52:24;153439.0;;;18.55;54.87
33913;BME280;20200;52.084;5.224;2023-04-01T09:54:16;153467.0;;;18.68;54.71
33913;BME280;20200;52.084;5.224;2023-04-01T09:56:19;153250.0;;;17.8;57.32
33913;BME280;20200;52.084;5.224;2023-04-01T09:59:27;153179.0;;;17.52;58.23
33913;BME280;20200;52.084;5.224;2023-04-01T10:01:34;153253.0;;;17.82;57.81
33913;BME280;20200;52.084;5.224;2023-04-01T10:16:58;153543.0;;;18.97;55.25
33913;BME280;20200;52.084;5.224;2023-04-01T10:20:34;153392.0;;;18.37;55.32
33913;BME280;20200;52.084;5.224;2023-04-01T10:26:20;153540.0;;;18.96;54.52
33913;BME280;20200;52.084;5.224;2023-04-01T10:29:45;153486.0;;;18.75;54.83
33913;BME280;20200;52.084;5.224;2023-04-01T10:46:17;153588.0;;;19.16;53.77
33913;BME280;20200;52.084;5.224;2023-04-01T10:50:15;153615.0;;;19.25;53.85
33913;BME280;20200;52.084;5.224;2023-04-01T10:56:11;153664.0;;;19.45;52.96
33913;BME280;20200;52.084;5.224;2023-04-01T10:59:12;153556.0;;;19.02;54.22
33913;BME280;20200;52.084;5.224;2023-04-01T11:04:49;153736.0;;;19.73;52.91
33913;BME280;20200;52.084;5.224;2023-04-01T11:06:30;153669.0;;;19.47;53.44
33913;BME280;20200;52.084;5.224;2023-04-01T11:07:24;153669.0;;;19.47;53.44
33913;BME280;20200;52.084;5.224;2023-04-01T11:12:36;153921.0;;;20.47;51.38
33913;BME280;20200;52.084;5.224;2023-04-01T11:13:38;153921.0;;;20.47;51.38
33913;BME280;20200;52.084;5.224;2023-04-01T11:14:33;153871.0;;;20.27;52.81
33913;BME280;20200;52.084;5.224;2023-04-01T11:16:11;153871.0;;;20.27;52.81
33913;BME280;20200;52.084;5.224;2023-04-01T11:16:34;153609.0;;;19.23;54.95
33913;BME280;20200;52.084;5.224;2023-04-01T11:19:40;153800.0;;;20.0;54.09
33913;BME280;20200;52.084;5.224;2023-04-01T11:20:31;153800.0;;;20.0;54.09
33913;BME280;20200;52.084;5.224;2023-04-01T11:23:25;153768.0;;;19.86;53.24
33913;BME280;20200;52.084;5.224;2023-04-01T11:25:40;153615.0;;;19.25;53.96
33913;BME280;20200;52.084;5.224;2023-04-01T11:28:06;153601.0;;;19.2;53.89
33913;BME280;20200;52.084;5.224;2023-04-01T11:30:20;153688.0;;;19.54;53.58
33913;BME280;20200;52.084;5.224;2023-04-01T11:32:09;153783.0;;;19.93;52.79
33913;BME280;20200;52.084;5.224;2023-04-01T11:34:01;153609.0;;;19.23;53.46
33913;BME280;20200;52.084;5.224;2023-04-01T11:35:53;153681.0;;;19.52;53.17
33913;BME280;20200;52.084;5.224;2023-04-01T11:38:09;153615.0;;;19.25;54.02
33913;BME280;20200;52.084;5.224;2023-04-01T11:39:59;153766.0;;;19.86;52.74
33913;BME280;20200;52.084;5.224;2023-04-01T11:41:49;153961.0;;;20.63;51.57
33913;BME280;20200;52.084;5.224;2023-04-01T11:43:33;153852.0;;;20.2;52.42
33913;BME280;20200;52.084;5.224;2023-04-01T11:47:28;153733.0;;;19.72;53.31
33913;BME280;20200;52.084;5.224;2023-04-01T11:49:45;153846.0;;;20.18;52.04
33913;BME280;20200;52.084;5.224;2023-04-01T11:51:40;153967.0;;;20.65;51.54
33913;BME280;20200;52.084;5.224;2023-04-01T11:54:10;153947.0;;;20.57;51.13
33913;BME280;20200;52.084;5.224;2023-04-01T11:57:55;153836.0;;;20.13;51.9
33913;BME280;20200;52.084;5.224;2023-04-01T11:59:52;153902.0;;;20.39;51.11
33913;BME280;20200;52.084;5.224;2023-04-01T12:01:47;153659.0;;;19.43;53.83
33913;BME280;20200;52.084;5.224;2023-04-01T12:03:41;153652.0;;;19.41;53.2
33913;BME280;20200;52.084;5.224;2023-04-01T12:06:02;153773.0;;;19.88;52.29
33913;BME280;20200;52.084;5.224;2023-04-01T12:07:55;153778.0;;;19.91;52.09
33913;BME280;20200;52.084;5.224;2023-04-01T12:09:46;153721.0;;;19.68;52.81
33913;BME280;20200;52.084;5.224;2023-04-01T12:11:29;153753.0;;;19.8;52.73
33913;BME280;20200;52.084;5.224;2023-04-01T12:13:20;153820.0;;;20.06;52.29
33913;BME280;20200;52.084;5.224;2023-04-01T12:15:13;153795.0;;;19.97;52.65
33913;BME280;20200;52.084;5.224;2023-04-01T12:16:59;153804.0;;;20.0;52.94